Impacts METAR Board
IDs:

KDCA - Washington/National, VA, US

Updated at: 0900 UTC 25 May 2020
Potential Impact None Slight Moderate High
Time 24/21Z 24/22Z 24/23Z 25/00Z 25/01Z 25/02Z 25/03Z 25/04Z 25/05Z 25/06Z 25/07Z 25/08Z 25/09Z
Temp66 65 64 64 64 64 64 64 63 63 63 63 62
Dewpt58 58 58 57 57 57 58 58 58 58 58 58 57
Altim30.19 30.19 30.19 30.18 30.20 30.22 30.21 30.21 30.20 30.19 30.19 30.19 30.19
VIS10 10 10 10 10 10 10 10 10 10 10 10 10
CIG22 19 17 17 18 20 22 21 17 20 24 25 25
CoverOVCOVCOVCOVCOVCOVCOVCOVCOVCOVCOVCOVCOVC
FltCatMVFRMVFRMVFRMVFRMVFRMVFRMVFRMVFRMVFRMVFRMVFRMVFRMVFR
WX--------------------------
WDir11012080110130014016013010013010090
WSpd8 8 5 5 6 0 3 4 5 3 6 3 4
WGst-- -- -- -- -- -- -- -- -- -- -- -- --
Raw hourly METARs
KDCA 242052Z 11008KT 10SM OVC022 19/14 A3019 RMK AO2 SLP224 T01890144 56007
KDCA 242152Z 12008KT 10SM OVC019 18/14 A3019 RMK AO2 SLP221 T01830144
KDCA 242252Z 08005KT 10SM OVC017 18/14 A3019 RMK AO2 SLP222 T01780144
KDCA 242352Z 11005KT 10SM OVC017 18/14 A3018 RMK AO2 SLP220 T01780139 10206 20178 56004
KDCA 250052Z 13006KT 10SM OVC018 18/14 A3020 RMK AO2 SLP226 T01780139
KDCA 250152Z 00000KT 10SM OVC020 18/14 A3022 RMK AO2 SLP233 T01780139
KDCA 250252Z 14003KT 10SM OVC022 18/14 A3021 RMK AO2 SLP230 T01780144 50010
KDCA 250352Z 16004KT 10SM OVC021 18/14 A3021 RMK AO2 SLP229 T01780144
KDCA 250452Z 13005KT 10SM OVC017 17/14 A3020 RMK AO2 SLP226 T01720144 402110156
KDCA 250552Z 10003KT 10SM OVC020 17/14 A3019 RMK AO2 SLP222 T01720144 10178 20172 58008
KDCA 250652Z 13006KT 10SM OVC024 17/14 A3019 RMK AO2 SLP221 T01720144
KDCA 250752Z 10003KT 10SM OVC025 17/14 A3019 RMK AO2 SLP221 T01720144
KDCA 250852Z 09004KT 10SM OVC025 17/14 A3019 RMK AO2 SLP223 T01670139 53001



Page loaded:  09:25 UTC  |   02:25 AM Pacific  |   03:25 AM Mountain  |   04:25 AM Central  |   05:25 AM Eastern

 

ADVISORIES

FORECASTS

FORECASTS

OBSERVATIONS

USER TOOLS

ABOUT US